sensor_id;sensor_type;location;lat;lon;timestamp;temperature;humidity
39849;DHT22;25518;47.878;15.914;2022-12-08T00:01:42;0.00;99.90
39849;DHT22;25518;47.878;15.914;2022-12-08T00:04:13;0.10;99.90
39849;DHT22;25518;47.878;15.914;2022-12-08T00:06:44;-0.10;99.90
39849;DHT22;25518;47.878;15.914;2022-12-08T00:09:38;-0.10;99.90
39849;DHT22;25518;47.878;15.914;2022-12-08T00:12:10;-0.20;99.90
39849;DHT22;25518;47.878;15.914;2022-12-08T00:14:44;-0.10;99.90
39849;DHT22;25518;47.878;15.914;2022-12-08T00:17:15;-0.10;99.90
39849;DHT22;25518;47.878;15.914;2022-12-08T00:19:46;-0.10;99.90
39849;DHT22;25518;47.878;15.914;2022-12-08T00:22:17;0.00;99.90
39849;DHT22;25518;47.878;15.914;2022-12-08T00:24:48;0.00;99.90
39849;DHT22;25518;47.878;15.914;2022-12-08T00:27:19;0.00;99.90
39849;DHT22;25518;47.878;15.914;2022-12-08T00:29:50;0.10;99.90
39849;DHT22;25518;47.878;15.914;2022-12-08T00:32:21;0.10;99.90
39849;DHT22;25518;47.878;15.914;2022-12-08T00:34:52;0.10;99.90
39849;DHT22;25518;47.878;15.914;2022-12-08T00:37:23;0.10;99.90
39849;DHT22;25518;47.878;15.914;2022-12-08T00:39:53;0.00;99.90
39849;DHT22;25518;47.878;15.914;2022-12-08T00:42:24;0.00;99.90
39849;DHT22;25518;47.878;15.914;2022-12-08T00:44:55;0.00;99.90
39849;DHT22;25518;47.878;15.914;2022-12-08T00:47:26;0.00;99.90
39849;DHT22;25518;47.878;15.914;2022-12-08T00:49:57;0.10;99.90
39849;DHT22;25518;47.878;15.914;2022-12-08T00:52:28;0.20;99.90
39849;DHT22;25518;47.878;15.914;2022-12-08T00:54:59;0.20;99.90
39849;DHT22;25518;47.878;15.914;2022-12-08T00:57:31;0.20;99.90
39849;DHT22;25518;47.878;15.914;2022-12-08T01:00:02;0.20;99.90
39849;DHT22;25518;47.878;15.914;2022-12-08T01:02:33;0.20;99.90
39849;DHT22;25518;47.878;15.914;2022-12-08T01:05:05;-0.10;99.90
39849;DHT22;25518;47.878;15.914;2022-12-08T01:07:36;0.20;99.90
39849;DHT22;25518;47.878;15.914;2022-12-08T01:10:07;0.20;99.90
39849;DHT22;25518;47.878;15.914;2022-12-08T01:12:38;0.20;99.90
39849;DHT22;25518;47.878;15.914;2022-12-08T01:15:09;-0.40;99.90
39849;DHT22;25518;47.878;15.914;2022-12-08T01:17:40;0.10;99.90
39849;DHT22;25518;47.878;15.914;2022-12-08T01:20:11;0.20;99.90
39849;DHT22;25518;47.878;15.914;2022-12-08T01:22:42;0.20;99.90
39849;DHT22;25518;47.878;15.914;2022-12-08T01:25:13;0.20;99.90
39849;DHT22;25518;47.878;15.914;2022-12-08T01:27:44;0.10;99.90
39849;DHT22;25518;47.878;15.914;2022-12-08T01:30:15;0.10;99.90
39849;DHT22;25518;47.878;15.914;2022-12-08T01:32:46;0.10;99.90
39849;DHT22;25518;47.878;15.914;2022-12-08T01:35:17;-0.10;99.90
39849;DHT22;25518;47.878;15.914;2022-12-08T01:37:49;-1.30;99.90
39849;DHT22;25518;47.878;15.914;2022-12-08T01:40:20;0.10;99.90
39849;DHT22;25518;47.878;15.914;2022-12-08T01:42:51;0.10;99.90
39849;DHT22;25518;47.878;15.914;2022-12-08T01:45:27;0.10;99.90
39849;DHT22;25518;47.878;15.914;2022-12-08T01:48:03;0.10;99.90
39849;DHT22;25518;47.878;15.914;2022-12-08T01:50:38;-0.40;99.90
39849;DHT22;25518;47.878;15.914;2022-12-08T01:53:13;0.00;99.90
39849;DHT22;25518;47.878;15.914;2022-12-08T01:55:50;0.10;99.90
39849;DHT22;25518;47.878;15.914;2022-12-08T01:58:30;0.10;99.90
39849;DHT22;25518;47.878;15.914;2022-12-08T02:01:02;0.10;99.90
39849;DHT22;25518;47.878;15.914;2022-12-08T02:03:57;0.20;99.90
39849;DHT22;25518;47.878;15.914;2022-12-08T02:06:34;0.10;99.90
39849;DHT22;25518;47.878;15.914;2022-12-08T02:09:06;0.10;99.90
39849;DHT22;25518;47.878;15.914;2022-12-08T02:11:37;0.20;99.90
39849;DHT22;25518;47.878;15.914;2022-12-08T02:14:11;0.20;99.90
39849;DHT22;25518;47.878;15.914;2022-12-08T02:16:53;0.30;99.90
39849;DHT22;25518;47.878;15.914;2022-12-08T02:24:46;0.10;99.90
39849;DHT22;25518;47.878;15.914;2022-12-08T02:30:17;0.10;99.90
39849;DHT22;25518;47.878;15.914;2022-12-08T02:44:29;0.30;99.90
39849;DHT22;25518;47.878;15.914;2022-12-08T02:47:08;0.30;99.90
39849;DHT22;25518;47.878;15.914;2022-12-08T02:49:40;0.20;99.90
39849;DHT22;25518;47.878;15.914;2022-12-08T02:54:52;0.20;99.90
39849;DHT22;25518;47.878;15.914;2022-12-08T03:19:34;-0.30;99.90
39849;DHT22;25518;47.878;15.914;2022-12-08T03:22:08;-0.20;99.90
39849;DHT22;25518;47.878;15.914;2022-12-08T03:24:42;-1.40;99.90
39849;DHT22;25518;47.878;15.914;2022-12-08T03:27:18;-0.10;99.90
39849;DHT22;25518;47.878;15.914;2022-12-08T03:29:52;-0.20;99.90
39849;DHT22;25518;47.878;15.914;2022-12-08T03:35:21;-0.10;99.90
39849;DHT22;25518;47.878;15.914;2022-12-08T03:38:13;0.00;99.90
39849;DHT22;25518;47.878;15.914;2022-12-08T03:40:45;0.00;99.90
39849;DHT22;25518;47.878;15.914;2022-12-08T03:43:36;0.10;99.90
39849;DHT22;25518;47.878;15.914;2022-12-08T03:46:07;0.10;99.90
39849;DHT22;25518;47.878;15.914;2022-12-08T03:48:37;0.10;99.90
39849;DHT22;25518;47.878;15.914;2022-12-08T03:51:09;0.10;99.90
39849;DHT22;25518;47.878;15.914;2022-12-08T03:53:40;-0.30;99.90
39849;DHT22;25518;47.878;15.914;2022-12-08T03:58:50;0.10;99.90
39849;DHT22;25518;47.878;15.914;2022-12-08T04:01:21;0.20;99.90
39849;DHT22;25518;47.878;15.914;2022-12-08T04:03:53;0.20;99.90
39849;DHT22;25518;47.878;15.914;2022-12-08T04:06:24;0.10;99.90
39849;DHT22;25518;47.878;15.914;2022-12-08T04:08:55;0.10;99.90
39849;DHT22;25518;47.878;15.914;2022-12-08T04:11:26;0.00;99.90
39849;DHT22;25518;47.878;15.914;2022-12-08T04:13:57;-0.10;99.90
39849;DHT22;25518;47.878;15.914;2022-12-08T04:16:28;0.00;99.90
39849;DHT22;25518;47.878;15.914;2022-12-08T04:18:59;0.00;99.90
39849;DHT22;25518;47.878;15.914;2022-12-08T04:21:30;0.00;99.90
39849;DHT22;25518;47.878;15.914;2022-12-08T04:24:01;0.00;99.90
39849;DHT22;25518;47.878;15.914;2022-12-08T04:26:32;0.10;99.90
39849;DHT22;25518;47.878;15.914;2022-12-08T04:29:03;0.00;99.90
39849;DHT22;25518;47.878;15.914;2022-12-08T04:31:34;-0.10;99.90
39849;DHT22;25518;47.878;15.914;2022-12-08T04:34:05;0.00;99.90
39849;DHT22;25518;47.878;15.914;2022-12-08T04:36:36;-1.20;99.90
39849;DHT22;25518;47.878;15.914;2022-12-08T04:39:07;0.00;99.90
39849;DHT22;25518;47.878;15.914;2022-12-08T04:41:38;0.00;99.90
39849;DHT22;25518;47.878;15.914;2022-12-08T04:44:09;0.10;99.90
39849;DHT22;25518;47.878;15.914;2022-12-08T04:46:40;0.00;99.90
39849;DHT22;25518;47.878;15.914;2022-12-08T04:49:11;0.00;99.90
39849;DHT22;25518;47.878;15.914;2022-12-08T04:51:42;0.00;99.90
39849;DHT22;25518;47.878;15.914;2022-12-08T04:54:13;0.00;99.90
39849;DHT22;25518;47.878;15.914;2022-12-08T04:56:44;0.00;99.90
39849;DHT22;25518;47.878;15.914;2022-12-08T04:59:14;-1.30;99.90
39849;DHT22;25518;47.878;15.914;2022-12-08T05:01:45;0.10;99.90
39849;DHT22;25518;47.878;15.914;2022-12-08T05:04:16;0.10;99.90
39849;DHT22;25518;47.878;15.914;2022-12-08T05:06:47;0.10;99.90
39849;DHT22;25518;47.878;15.914;2022-12-08T05:09:18;0.20;99.90
39849;DHT22;25518;47.878;15.914;2022-12-08T05:11:49;0.20;99.90
39849;DHT22;25518;47.878;15.914;2022-12-08T05:14:20;-1.40;99.90
39849;DHT22;25518;47.878;15.914;2022-12-08T05:16:51;0.10;99.90
39849;DHT22;25518;47.878;15.914;2022-12-08T05:19:24;0.10;99.90
39849;DHT22;25518;47.878;15.914;2022-12-08T05:21:55;0.10;99.90
39849;DHT22;25518;47.878;15.914;2022-12-08T05:24:26;0.10;99.90
39849;DHT22;25518;47.878;15.914;2022-12-08T05:27:00;0.10;99.90
39849;DHT22;25518;47.878;15.914;2022-12-08T05:29:31;0.10;99.90
39849;DHT22;25518;47.878;15.914;2022-12-08T05:32:02;0.10;99.90
39849;DHT22;25518;47.878;15.914;2022-12-08T05:34:33;0.20;99.90
39849;DHT22;25518;47.878;15.914;2022-12-08T05:37:04;0.20;99.90
39849;DHT22;25518;47.878;15.914;2022-12-08T05:39:35;0.10;99.90
39849;DHT22;25518;47.878;15.914;2022-12-08T05:42:05;0.10;99.90
39849;DHT22;25518;47.878;15.914;2022-12-08T05:44:36;0.10;99.90
39849;DHT22;25518;47.878;15.914;2022-12-08T05:47:07;0.00;99.90
39849;DHT22;25518;47.878;15.914;2022-12-08T05:49:38;-0.70;99.90
39849;DHT22;25518;47.878;15.914;2022-12-08T05:52:09;0.20;99.90
39849;DHT22;25518;47.878;15.914;2022-12-08T05:54:40;0.20;99.90
39849;DHT22;25518;47.878;15.914;2022-12-08T05:57:11;0.10;99.90
39849;DHT22;25518;47.878;15.914;2022-12-08T05:59:42;-1.30;99.90
39849;DHT22;25518;47.878;15.914;2022-12-08T06:02:13;0.00;99.90
39849;DHT22;25518;47.878;15.914;2022-12-08T06:04:44;0.10;99.90
39849;DHT22;25518;47.878;15.914;2022-12-08T06:07:15;0.10;99.90
39849;DHT22;25518;47.878;15.914;2022-12-08T06:09:46;0.20;99.90
39849;DHT22;25518;47.878;15.914;2022-12-08T06:12:17;0.20;99.90
39849;DHT22;25518;47.878;15.914;2022-12-08T06:14:48;-0.10;99.90
39849;DHT22;25518;47.878;15.914;2022-12-08T06:17:19;0.10;99.90
39849;DHT22;25518;47.878;15.914;2022-12-08T06:19:50;0.10;99.90
39849;DHT22;25518;47.878;15.914;2022-12-08T06:22:21;0.00;99.90
39849;DHT22;25518;47.878;15.914;2022-12-08T06:24:52;0.00;99.90
39849;DHT22;25518;47.878;15.914;2022-12-08T06:27:23;0.00;99.90
39849;DHT22;25518;47.878;15.914;2022-12-08T06:29:54;0.00;99.90
39849;DHT22;25518;47.878;15.914;2022-12-08T06:32:25;-0.20;99.90
39849;DHT22;25518;47.878;15.914;2022-12-08T06:34:56;0.10;99.90
39849;DHT22;25518;47.878;15.914;2022-12-08T06:37:27;0.10;99.90
39849;DHT22;25518;47.878;15.914;2022-12-08T06:39:58;0.00;99.90
39849;DHT22;25518;47.878;15.914;2022-12-08T06:42:29;0.00;99.90
39849;DHT22;25518;47.878;15.914;2022-12-08T06:45:17;0.00;99.90
39849;DHT22;25518;47.878;15.914;2022-12-08T06:47:48;-0.50;99.90
39849;DHT22;25518;47.878;15.914;2022-12-08T06:50:19;-0.10;99.90
39849;DHT22;25518;47.878;15.914;2022-12-08T06:52:50;-1.00;99.90
39849;DHT22;25518;47.878;15.914;2022-12-08T06:55:21;-0.50;99.90
39849;DHT22;25518;47.878;15.914;2022-12-08T06:57:52;-0.50;99.90
39849;DHT22;25518;47.878;15.914;2022-12-08T07:00:23;-0.50;99.90
39849;DHT22;25518;47.878;15.914;2022-12-08T07:02:54;-0.60;99.90
39849;DHT22;25518;47.878;15.914;2022-12-08T07:05:25;-0.70;99.90
39849;DHT22;25518;47.878;15.914;2022-12-08T07:07:56;-0.90;99.90
39849;DHT22;25518;47.878;15.914;2022-12-08T07:10:27;-0.90;99.90
39849;DHT22;25518;47.878;15.914;2022-12-08T07:12:58;-0.90;99.90
39849;DHT22;25518;47.878;15.914;2022-12-08T07:15:29;-0.80;99.90
39849;DHT22;25518;47.878;15.914;2022-12-08T07:18:00;-0.90;99.90
39849;DHT22;25518;47.878;15.914;2022-12-08T07:20:31;-1.00;99.90
39849;DHT22;25518;47.878;15.914;2022-12-08T07:23:02;-1.60;99.90
39849;DHT22;25518;47.878;15.914;2022-12-08T07:25:33;-1.30;99.90
39849;DHT22;25518;47.878;15.914;2022-12-08T07:28:08;-1.30;99.90
39849;DHT22;25518;47.878;15.914;2022-12-08T07:30:39;-1.00;99.90
39849;DHT22;25518;47.878;15.914;2022-12-08T07:33:10;-0.90;99.90
39849;DHT22;25518;47.878;15.914;2022-12-08T07:35:41;-0.90;99.90
39849;DHT22;25518;47.878;15.914;2022-12-08T07:38:12;-0.80;99.90
39849;DHT22;25518;47.878;15.914;2022-12-08T07:40:43;-1.80;99.90
39849;DHT22;25518;47.878;15.914;2022-12-08T07:43:14;-1.00;99.90
39849;DHT22;25518;47.878;15.914;2022-12-08T07:45:46;-2.50;99.90
39849;DHT22;25518;47.878;15.914;2022-12-08T07:48:17;-2.10;99.90
39849;DHT22;25518;47.878;15.914;2022-12-08T07:50:49;-0.80;99.90
39849;DHT22;25518;47.878;15.914;2022-12-08T07:53:20;-0.80;99.90
39849;DHT22;25518;47.878;15.914;2022-12-08T07:56:10;-0.90;99.90
39849;DHT22;25518;47.878;15.914;2022-12-08T07:58:42;-0.70;99.90
39849;DHT22;25518;47.878;15.914;2022-12-08T08:01:33;-0.60;99.90
39849;DHT22;25518;47.878;15.914;2022-12-08T08:04:05;-0.60;99.90
39849;DHT22;25518;47.878;15.914;2022-12-08T08:06:36;-0.40;99.90
39849;DHT22;25518;47.878;15.914;2022-12-08T08:09:07;-0.30;99.90
39849;DHT22;25518;47.878;15.914;2022-12-08T08:11:40;-0.10;99.90
39849;DHT22;25518;47.878;15.914;2022-12-08T08:14:10;-0.10;99.90
39849;DHT22;25518;47.878;15.914;2022-12-08T08:16:41;-0.10;99.90
39849;DHT22;25518;47.878;15.914;2022-12-08T08:19:16;0.00;99.90
39849;DHT22;25518;47.878;15.914;2022-12-08T08:21:47;-0.10;99.90
39849;DHT22;25518;47.878;15.914;2022-12-08T08:24:18;-0.30;99.90
39849;DHT22;25518;47.878;15.914;2022-12-08T08:26:51;-0.20;99.90
39849;DHT22;25518;47.878;15.914;2022-12-08T08:29:23;-0.10;99.90
39849;DHT22;25518;47.878;15.914;2022-12-08T08:31:54;0.10;99.90
39849;DHT22;25518;47.878;15.914;2022-12-08T08:34:25;0.20;99.90
39849;DHT22;25518;47.878;15.914;2022-12-08T08:36:56;0.30;99.90
39849;DHT22;25518;47.878;15.914;2022-12-08T08:39:27;0.40;99.90
39849;DHT22;25518;47.878;15.914;2022-12-08T08:41:59;0.40;99.90
39849;DHT22;25518;47.878;15.914;2022-12-08T08:44:30;0.50;99.90
39849;DHT22;25518;47.878;15.914;2022-12-08T08:47:01;0.50;99.90
39849;DHT22;25518;47.878;15.914;2022-12-08T08:49:32;0.70;99.90
39849;DHT22;25518;47.878;15.914;2022-12-08T08:52:04;0.80;99.90
39849;DHT22;25518;47.878;15.914;2022-12-08T08:54:35;0.80;99.90
39849;DHT22;25518;47.878;15.914;2022-12-08T08:57:07;0.70;99.90
39849;DHT22;25518;47.878;15.914;2022-12-08T08:59:38;0.90;99.90
39849;DHT22;25518;47.878;15.914;2022-12-08T09:02:16;0.90;99.90
39849;DHT22;25518;47.878;15.914;2022-12-08T09:04:47;0.80;99.90
39849;DHT22;25518;47.878;15.914;2022-12-08T09:07:18;0.70;99.90
39849;DHT22;25518;47.878;15.914;2022-12-08T09:09:49;0.90;99.90
39849;DHT22;25518;47.878;15.914;2022-12-08T09:12:20;1.00;99.90
39849;DHT22;25518;47.878;15.914;2022-12-08T09:14:51;1.10;99.90
39849;DHT22;25518;47.878;15.914;2022-12-08T09:17:22;1.30;99.90
39849;DHT22;25518;47.878;15.914;2022-12-08T09:19:53;1.30;99.90
39849;DHT22;25518;47.878;15.914;2022-12-08T09:22:24;1.40;99.90
39849;DHT22;25518;47.878;15.914;2022-12-08T09:24:55;1.60;99.90
39849;DHT22;25518;47.878;15.914;2022-12-08T09:27:26;1.50;99.90
39849;DHT22;25518;47.878;15.914;2022-12-08T09:29:57;1.40;99.90
39849;DHT22;25518;47.878;15.914;2022-12-08T09:32:28;1.40;99.90
39849;DHT22;25518;47.878;15.914;2022-12-08T09:34:59;1.30;99.90
39849;DHT22;25518;47.878;15.914;2022-12-08T09:37:31;1.30;99.90
39849;DHT22;25518;47.878;15.914;2022-12-08T09:40:03;1.30;99.90
39849;DHT22;25518;47.878;15.914;2022-12-08T09:42:42;1.20;99.90
39849;DHT22;25518;47.878;15.914;2022-12-08T09:45:16;1.40;99.90
39849;DHT22;25518;47.878;15.914;2022-12-08T09:50:44;1.50;99.90
39849;DHT22;25518;47.878;15.914;2022-12-08T09:55:57;1.80;99.90
39849;DHT22;25518;47.878;15.914;2022-12-08T10:01:26;0.50;99.90
39849;DHT22;25518;47.878;15.914;2022-12-08T10:03:59;1.70;99.90
39849;DHT22;25518;47.878;15.914;2022-12-08T10:12:02;1.80;99.90
39849;DHT22;25518;47.878;15.914;2022-12-08T10:14:46;1.70;99.90
39849;DHT22;25518;47.878;15.914;2022-12-08T10:17:23;1.70;99.90
39849;DHT22;25518;47.878;15.914;2022-12-08T10:20:10;1.80;99.90
39849;DHT22;25518;47.878;15.914;2022-12-08T10:22:43;1.90;99.90
39849;DHT22;25518;47.878;15.914;2022-12-08T10:25:22;1.80;99.90
39849;DHT22;25518;47.878;15.914;2022-12-08T10:27:55;1.90;99.90
39849;DHT22;25518;47.878;15.914;2022-12-08T10:30:29;2.00;99.90
39849;DHT22;25518;47.878;15.914;2022-12-08T10:33:01;1.90;99.90
39849;DHT22;25518;47.878;15.914;2022-12-08T10:38:22;1.60;99.90
39849;DHT22;25518;47.878;15.914;2022-12-08T10:41:13;1.60;99.90
39849;DHT22;25518;47.878;15.914;2022-12-08T10:43:49;1.80;99.90
39849;DHT22;25518;47.878;15.914;2022-12-08T10:46:24;1.60;99.90
39849;DHT22;25518;47.878;15.914;2022-12-08T10:49:10;1.60;99.90
39849;DHT22;25518;47.878;15.914;2022-12-08T10:51:42;1.70;99.90
39849;DHT22;25518;47.878;15.914;2022-12-08T10:54:33;1.70;99.90
39849;DHT22;25518;47.878;15.914;2022-12-08T10:57:05;1.80;99.90
39849;DHT22;25518;47.878;15.914;2022-12-08T10:59:40;1.90;99.90
39849;DHT22;25518;47.878;15.914;2022-12-08T11:02:18;1.80;99.90
39849;DHT22;25518;47.878;15.914;2022-12-08T11:04:57;1.80;99.90
39849;DHT22;25518;47.878;15.914;2022-12-08T11:07:30;1.90;99.90
39849;DHT22;25518;47.878;15.914;2022-12-08T11:10:00;1.90;99.90
39849;DHT22;25518;47.878;15.914;2022-12-08T11:12:31;1.90;99.90
39849;DHT22;25518;47.878;15.914;2022-12-08T11:15:03;1.90;99.90
39849;DHT22;25518;47.878;15.914;2022-12-08T11:17:37;1.90;99.90
39849;DHT22;25518;47.878;15.914;2022-12-08T11:22:42;2.00;99.90
39849;DHT22;25518;47.878;15.914;2022-12-08T11:25:21;2.10;99.90
39849;DHT22;25518;47.878;15.914;2022-12-08T11:27:57;2.10;99.90
39849;DHT22;25518;47.878;15.914;2022-12-08T11:30:34;2.10;99.90
39849;DHT22;25518;47.878;15.914;2022-12-08T11:33:24;2.00;99.90
39849;DHT22;25518;47.878;15.914;2022-12-08T11:36:06;1.90;99.90
39849;DHT22;25518;47.878;15.914;2022-12-08T11:38:41;1.90;99.90
39849;DHT22;25518;47.878;15.914;2022-12-08T11:41:35;2.00;99.90
39849;DHT22;25518;47.878;15.914;2022-12-08T11:44:48;2.20;99.90
39849;DHT22;25518;47.878;15.914;2022-12-08T11:50:18;2.30;99.90
39849;DHT22;25518;47.878;15.914;2022-12-08T11:52:50;2.20;99.90
39849;DHT22;25518;47.878;15.914;2022-12-08T11:55:40;2.30;99.90
39849;DHT22;25518;47.878;15.914;2022-12-08T11:58:20;2.30;99.90
39849;DHT22;25518;47.878;15.914;2022-12-08T12:00:52;2.40;99.90
39849;DHT22;25518;47.878;15.914;2022-12-08T12:06:24;2.50;99.90
39849;DHT22;25518;47.878;15.914;2022-12-08T12:09:18;2.80;99.90
39849;DHT22;25518;47.878;15.914;2022-12-08T12:14:51;2.40;99.90
39849;DHT22;25518;47.878;15.914;2022-12-08T12:20:02;1.90;99.90
39849;DHT22;25518;47.878;15.914;2022-12-08T12:22:37;3.30;99.90
39849;DHT22;25518;47.878;15.914;2022-12-08T12:25:18;3.80;99.90
39849;DHT22;25518;47.878;15.914;2022-12-08T12:27:51;3.80;99.90
39849;DHT22;25518;47.878;15.914;2022-12-08T12:30:27;1.90;99.90
39849;DHT22;25518;47.878;15.914;2022-12-08T12:33:05;3.80;99.90
39849;DHT22;25518;47.878;15.914;2022-12-08T12:35:43;4.00;99.90
39849;DHT22;25518;47.878;15.914;2022-12-08T12:38:22;4.20;99.90
39849;DHT22;25518;47.878;15.914;2022-12-08T12:41:21;4.20;99.90
39849;DHT22;25518;47.878;15.914;2022-12-08T13:07:32;4.00;99.90
39849;DHT22;25518;47.878;15.914;2022-12-08T13:10:18;4.20;99.90
39849;DHT22;25518;47.878;15.914;2022-12-08T13:15:48;3.80;99.90
39849;DHT22;25518;47.878;15.914;2022-12-08T13:18:23;3.70;99.90
39849;DHT22;25518;47.878;15.914;2022-12-08T13:34:54;3.50;99.90
39849;DHT22;25518;47.878;15.914;2022-12-08T13:37:34;3.50;99.90
39849;DHT22;25518;47.878;15.914;2022-12-08T13:40:15;3.50;99.90
39849;DHT22;25518;47.878;15.914;2022-12-08T13:45:34;3.60;99.90
39849;DHT22;25518;47.878;15.914;2022-12-08T13:48:49;3.60;99.90
39849;DHT22;25518;47.878;15.914;2022-12-08T13:51:22;3.60;99.90
39849;DHT22;25518;47.878;15.914;2022-12-08T13:54:17;3.60;99.90
39849;DHT22;25518;47.878;15.914;2022-12-08T13:56:50;5.30;99.90
39849;DHT22;25518;47.878;15.914;2022-12-08T13:59:25;4.50;99.90
39849;DHT22;25518;47.878;15.914;2022-12-08T14:02:03;2.00;99.90
39849;DHT22;25518;47.878;15.914;2022-12-08T14:04:35;3.40;99.90
39849;DHT22;25518;47.878;15.914;2022-12-08T14:07:08;3.70;99.90
39849;DHT22;25518;47.878;15.914;2022-12-08T14:09:41;4.70;99.90
39849;DHT22;25518;47.878;15.914;2022-12-08T14:17:33;3.60;99.90
39849;DHT22;25518;47.878;15.914;2022-12-08T14:20:23;1.80;99.90
39849;DHT22;25518;47.878;15.914;2022-12-08T14:22:55;4.20;99.90
39849;DHT22;25518;47.878;15.914;2022-12-08T14:25:28;2.80;99.90
39849;DHT22;25518;47.878;15.914;2022-12-08T14:28:02;2.10;99.90
39849;DHT22;25518;47.878;15.914;2022-12-08T14:30:34;3.70;99.90
39849;DHT22;25518;47.878;15.914;2022-12-08T14:33:12;2.40;99.90
39849;DHT22;25518;47.878;15.914;2022-12-08T14:35:50;3.80;99.90
39849;DHT22;25518;47.878;15.914;2022-12-08T14:38:26;3.50;99.90
39849;DHT22;25518;47.878;15.914;2022-12-08T14:41:04;1.40;99.90
39849;DHT22;25518;47.878;15.914;2022-12-08T14:43:38;3.70;99.90
39849;DHT22;25518;47.878;15.914;2022-12-08T14:46:21;0.90;99.90
39849;DHT22;25518;47.878;15.914;2022-12-08T14:48:55;5.50;99.90
39849;DHT22;25518;47.878;15.914;2022-12-08T14:51:30;2.30;99.90
39849;DHT22;25518;47.878;15.914;2022-12-08T14:54:08;2.10;99.90
39849;DHT22;25518;47.878;15.914;2022-12-08T14:57:00;5.00;99.90
39849;DHT22;25518;47.878;15.914;2022-12-08T14:59:34;2.10;99.90
39849;DHT22;25518;47.878;15.914;2022-12-08T15:02:25;3.80;99.90
39849;DHT22;25518;47.878;15.914;2022-12-08T15:07:51;3.40;99.90
39849;DHT22;25518;47.878;15.914;2022-12-08T15:10:25;3.40;99.90
39849;DHT22;25518;47.878;15.914;2022-12-08T15:18:30;3.20;99.90
39849;DHT22;25518;47.878;15.914;2022-12-08T15:21:06;3.20;99.90
39849;DHT22;25518;47.878;15.914;2022-12-08T15:23:42;3.20;99.90
39849;DHT22;25518;47.878;15.914;2022-12-08T15:26:20;3.20;99.90
39849;DHT22;25518;47.878;15.914;2022-12-08T15:28:52;3.20;99.90
39849;DHT22;25518;47.878;15.914;2022-12-08T15:31:23;3.10;99.90
39849;DHT22;25518;47.878;15.914;2022-12-08T15:33:54;3.10;99.90
39849;DHT22;25518;47.878;15.914;2022-12-08T15:36:25;3.10;99.90
39849;DHT22;25518;47.878;15.914;2022-12-08T15:38:55;3.00;99.90
39849;DHT22;25518;47.878;15.914;2022-12-08T15:41:26;3.10;99.90
39849;DHT22;25518;47.878;15.914;2022-12-08T15:43:57;2.90;99.90
39849;DHT22;25518;47.878;15.914;2022-12-08T15:46:28;3.00;99.90
39849;DHT22;25518;47.878;15.914;2022-12-08T15:48:59;3.00;99.90
39849;DHT22;25518;47.878;15.914;2022-12-08T15:51:30;2.50;99.90
39849;DHT22;25518;47.878;15.914;2022-12-08T15:54:06;3.00;99.90
39849;DHT22;25518;47.878;15.914;2022-12-08T15:56:42;3.00;99.90
39849;DHT22;25518;47.878;15.914;2022-12-08T15:59:17;1.90;99.90
39849;DHT22;25518;47.878;15.914;2022-12-08T16:01:50;3.00;99.90
39849;DHT22;25518;47.878;15.914;2022-12-08T16:04:21;3.00;99.90
39849;DHT22;25518;47.878;15.914;2022-12-08T16:06:52;3.10;99.90
39849;DHT22;25518;47.878;15.914;2022-12-08T16:09:36;3.00;99.90
39849;DHT22;25518;47.878;15.914;2022-12-08T16:12:16;2.00;99.90
39849;DHT22;25518;47.878;15.914;2022-12-08T16:15:08;3.00;99.90
39849;DHT22;25518;47.878;15.914;2022-12-08T16:17:40;3.00;99.90
39849;DHT22;25518;47.878;15.914;2022-12-08T16:20:14;3.10;99.90
39849;DHT22;25518;47.878;15.914;2022-12-08T16:22:48;3.10;99.90
39849;DHT22;25518;47.878;15.914;2022-12-08T16:25:20;2.00;99.90
39849;DHT22;25518;47.878;15.914;2022-12-08T16:27:54;3.10;99.90
39849;DHT22;25518;47.878;15.914;2022-12-08T16:30:25;3.00;99.90
39849;DHT22;25518;47.878;15.914;2022-12-08T16:32:56;2.90;99.90
39849;DHT22;25518;47.878;15.914;2022-12-08T16:35:27;2.90;99.90
39849;DHT22;25518;47.878;15.914;2022-12-08T16:37:58;1.80;99.90
39849;DHT22;25518;47.878;15.914;2022-12-08T16:40:30;2.90;99.90
39849;DHT22;25518;47.878;15.914;2022-12-08T16:43:01;3.00;99.90
39849;DHT22;25518;47.878;15.914;2022-12-08T16:45:32;3.00;99.90
39849;DHT22;25518;47.878;15.914;2022-12-08T16:48:08;3.00;99.90
39849;DHT22;25518;47.878;15.914;2022-12-08T16:50:44;3.00;99.90
39849;DHT22;25518;47.878;15.914;2022-12-08T16:53:16;2.70;99.90
39849;DHT22;25518;47.878;15.914;2022-12-08T16:55:48;3.20;99.90
39849;DHT22;25518;47.878;15.914;2022-12-08T16:58:21;2.10;99.90
39849;DHT22;25518;47.878;15.914;2022-12-08T17:00:55;3.10;99.90
39849;DHT22;25518;47.878;15.914;2022-12-08T17:03:30;3.10;99.90
39849;DHT22;25518;47.878;15.914;2022-12-08T17:06:15;3.10;99.90
39849;DHT22;25518;47.878;15.914;2022-12-08T17:08:46;3.10;99.90
39849;DHT22;25518;47.878;15.914;2022-12-08T17:11:22;3.00;99.90
39849;DHT22;25518;47.878;15.914;2022-12-08T17:13:54;2.40;99.90
39849;DHT22;25518;47.878;15.914;2022-12-08T17:16:25;2.90;99.90
39849;DHT22;25518;47.878;15.914;2022-12-08T17:18:57;2.60;99.90
39849;DHT22;25518;47.878;15.914;2022-12-08T17:24:08;2.90;99.90
39849;DHT22;25518;47.878;15.914;2022-12-08T17:26:39;4.00;99.90
39849;DHT22;25518;47.878;15.914;2022-12-08T17:29:11;0.80;99.90
39849;DHT22;25518;47.878;15.914;2022-12-08T17:31:42;3.20;99.90
39849;DHT22;25518;47.878;15.914;2022-12-08T17:34:13;2.30;99.90
39849;DHT22;25518;47.878;15.914;2022-12-08T17:36:44;0.60;99.90
39849;DHT22;25518;47.878;15.914;2022-12-08T17:39:16;5.10;99.90
39849;DHT22;25518;47.878;15.914;2022-12-08T17:41:47;3.60;99.90
39849;DHT22;25518;47.878;15.914;2022-12-08T17:44:18;1.20;99.90
39849;DHT22;25518;47.878;15.914;2022-12-08T17:46:49;1.40;99.90
39849;DHT22;25518;47.878;15.914;2022-12-08T17:49:23;3.10;99.90
39849;DHT22;25518;47.878;15.914;2022-12-08T17:51:57;3.00;99.90
39849;DHT22;25518;47.878;15.914;2022-12-08T17:54:29;2.90;99.90
39849;DHT22;25518;47.878;15.914;2022-12-08T17:57:01;2.50;99.90
39849;DHT22;25518;47.878;15.914;2022-12-08T17:59:32;2.80;99.90
39849;DHT22;25518;47.878;15.914;2022-12-08T18:02:03;2.80;99.90
39849;DHT22;25518;47.878;15.914;2022-12-08T18:04:34;2.70;99.90
39849;DHT22;25518;47.878;15.914;2022-12-08T18:07:05;2.80;99.90
39849;DHT22;25518;47.878;15.914;2022-12-08T18:09:35;2.90;99.90
39849;DHT22;25518;47.878;15.914;2022-12-08T18:12:06;2.80;99.90
39849;DHT22;25518;47.878;15.914;2022-12-08T18:14:37;2.90;99.90
39849;DHT22;25518;47.878;15.914;2022-12-08T18:17:08;2.80;99.90
39849;DHT22;25518;47.878;15.914;2022-12-08T18:19:39;2.80;99.90
39849;DHT22;25518;47.878;15.914;2022-12-08T18:22:10;2.80;99.90
39849;DHT22;25518;47.878;15.914;2022-12-08T18:24:42;2.80;99.90
39849;DHT22;25518;47.878;15.914;2022-12-08T18:27:13;2.80;99.90
39849;DHT22;25518;47.878;15.914;2022-12-08T18:29:44;2.80;99.90